Time;durP1;ratioP1;P1;durP2;ratioP2;P2;SDS_P1;SDS_P2;PMS_P1;PMS_P2;Temp;Humidity;BMP_temperature;BMP_pressure;BME280_temperature;BME280_humidity;BME280_pressure;Samples;Min_cycle;Max_cycle;Signal;HPM_P1;HPM_P2
2023/06/02 00:01:24;;;;;;;9.87;6.50;;;;;;;12.83;88.18;100612.75;5042828;28;20204;-73
2023/06/02 00:03:53;;;;;;;10.03;6.20;;;;;;;12.80;88.13;100610.03;5043838;28;20265;-74
2023/06/02 00:06:20;;;;;;;10.17;6.13;;;;;;;12.92;87.21;100621.66;5047336;28;20220;-75
2023/06/02 00:08:46;;;;;;;9.03;6.30;;;;;;;12.88;87.24;100618.09;5044617;28;20499;-74
2023/06/02 00:11:13;;;;;;;8.23;6.10;;;;;;;12.83;87.76;100619.81;5045282;28;20256;-77
2023/06/02 00:13:40;;;;;;;9.23;6.47;;;;;;;12.81;87.71;100619.81;5047809;28;20223;-78
2023/06/02 00:16:06;;;;;;;10.10;6.67;;;;;;;12.66;88.57;100617.00;5046863;28;20627;-77
2023/06/02 00:18:36;;;;;;;12.13;6.00;;;;;;;12.61;89.39;100612.53;5043424;28;20572;-80
2023/06/02 00:21:08;;;;;;;10.07;6.50;;;;;;;12.50;90.12;100616.00;5046285;28;20202;-79
2023/06/02 00:23:34;;;;;;;9.50;6.07;;;;;;;12.34;91.52;100622.00;5047465;28;20229;-81
2023/06/02 00:26:01;;;;;;;8.53;5.83;;;;;;;12.15;93.03;100609.44;5045331;28;20223;-80
2023/06/02 00:28:28;;;;;;;8.63;6.23;;;;;;;12.03;93.22;100612.88;5046425;28;20198;-80
2023/06/02 00:30:55;;;;;;;8.73;6.33;;;;;;;11.89;94.83;100612.69;5047413;28;20672;-79
2023/06/02 00:33:22;;;;;;;8.17;5.80;;;;;;;11.95;94.78;100610.97;5047160;28;20219;-81
2023/06/02 00:35:48;;;;;;;8.60;5.83;;;;;;;11.82;95.24;100617.91;5061462;28;20193;-81
2023/06/02 00:38:15;;;;;;;9.37;5.97;;;;;;;11.86;95.17;100635.66;5046986;28;20199;-79
2023/06/02 00:40:42;;;;;;;9.73;6.53;;;;;;;11.84;94.95;100626.78;5048219;28;20199;-81
2023/06/02 00:43:08;;;;;;;8.30;5.93;;;;;;;11.74;95.15;100617.78;5045563;28;20737;-79
2023/06/02 00:45:35;;;;;;;7.27;5.70;;;;;;;11.82;95.01;100617.91;5048041;28;20305;-79
2023/06/02 00:48:02;;;;;;;7.97;5.63;;;;;;;11.60;95.84;100614.94;5045626;28;20191;-81
2023/06/02 00:50:30;;;;;;;10.00;6.57;;;;;;;11.51;97.17;100619.25;5047484;28;20303;-78
2023/06/02 00:52:57;;;;;;;8.90;6.23;;;;;;;11.52;96.61;100615.72;5044886;28;20198;-80
2023/06/02 00:55:28;;;;;;;8.53;6.60;;;;;;;11.54;97.29;100619.28;5046935;28;20592;-80
2023/06/02 00:57:56;;;;;;;8.57;6.27;;;;;;;11.57;96.75;100617.56;5044256;28;20213;-80
2023/06/02 01:00:23;;;;;;;8.60;6.00;;;;;;;11.51;97.48;100616.59;5043393;28;20208;-79
2023/06/02 01:02:50;;;;;;;8.67;6.50;;;;;;;11.58;97.08;100623.75;5046126;28;20724;-81
2023/06/02 01:05:19;;;;;;;8.40;6.10;;;;;;;11.67;96.34;100621.25;5044271;28;20227;-77
2023/06/02 01:07:47;;;;;;;9.10;6.07;;;;;;;11.63;96.39;100616.78;5046379;28;20207;-79
2023/06/02 01:10:15;;;;;;;8.23;6.30;;;;;;;11.69;96.09;100619.50;5046186;28;20200;-80
2023/06/02 01:12:43;;;;;;;9.30;6.10;;;;;;;11.75;95.65;100624.88;5044606;28;20226;-77
2023/06/02 01:15:11;;;;;;;9.53;6.47;;;;;;;11.79;95.03;100629.38;5046456;28;20449;-78
2023/06/02 01:17:38;;;;;;;8.40;5.93;;;;;;;11.69;95.53;100631.88;5045323;28;20201;-76
2023/06/02 01:20:08;;;;;;;8.47;6.20;;;;;;;11.67;95.77;100636.28;5045015;28;20533;-76
2023/06/02 01:22:40;;;;;;;9.43;6.30;;;;;;;11.63;96.19;100629.16;5045397;28;20779;-76
2023/06/02 01:25:21;;;;;;;8.90;5.83;;;;;;;11.56;96.71;100628.16;5043620;28;20232;-77
2023/06/02 01:27:49;;;;;;;9.17;6.50;;;;;;;11.53;96.74;100633.41;5047454;28;20230;-72
2023/06/02 01:30:16;;;;;;;9.83;6.73;;;;;;;11.60;96.64;100632.63;5044392;28;20225;-77
2023/06/02 01:32:53;;;;;;;11.30;6.60;;;;;;;11.54;96.71;100635.19;5048233;28;20301;-72
2023/06/02 01:35:24;;;;;;;9.27;6.30;;;;;;;11.52;96.13;100635.19;5044708;28;20238;-73
2023/06/02 01:37:56;;;;;;;10.70;6.60;;;;;;;11.42;96.78;100630.63;5047128;28;20572;-73
2023/06/02 01:40:24;;;;;;;9.57;6.73;;;;;;;11.48;96.54;100636.00;5047396;28;20212;-72
2023/06/02 01:42:52;;;;;;;8.77;6.30;;;;;;;11.50;96.54;100639.56;5047485;28;20196;-72
2023/06/02 01:45:20;;;;;;;9.93;6.23;;;;;;;11.41;96.35;100647.41;5038150;28;20688;-74
2023/06/02 01:47:47;;;;;;;10.13;6.57;;;;;;;11.44;96.28;100639.50;5046245;28;20191;-72
2023/06/02 01:50:13;;;;;;;10.20;6.57;;;;;;;11.41;96.33;100646.50;5045334;28;20625;-72
2023/06/02 01:52:40;;;;;;;11.93;7.10;;;;;;;11.38;96.30;100647.38;5043942;28;20231;-71
2023/06/02 01:55:06;;;;;;;13.40;7.40;;;;;;;11.37;96.30;100652.66;5039430;28;20230;-71
2023/06/02 01:57:34;;;;;;;12.53;6.67;;;;;;;11.28;96.29;100651.66;5042949;28;20588;-72
2023/06/02 02:00:04;;;;;;;10.33;6.73;;;;;;;11.30;96.42;100646.38;5049454;28;20261;-71
2023/06/02 02:02:30;;;;;;;11.57;7.03;;;;;;;11.33;95.87;100646.41;5042182;28;20752;-71
2023/06/02 02:04:57;;;;;;;9.23;6.60;;;;;;;11.40;94.80;100637.66;5043568;28;20288;-72
2023/06/02 02:07:23;;;;;;;10.20;6.90;;;;;;;11.42;94.59;100645.66;5041946;28;20271;-72
2023/06/02 02:09:50;;;;;;;11.43;7.30;;;;;;;11.47;93.99;100649.25;5047149;28;20233;-71
2023/06/02 02:12:16;;;;;;;14.67;7.87;;;;;;;11.41;94.03;100646.50;5048969;28;20195;-71
2023/06/02 02:14:43;;;;;;;12.67;7.03;;;;;;;11.39;94.31;100643.84;5046296;28;20257;-70
2023/06/02 02:17:10;;;;;;;13.03;7.20;;;;;;;11.39;94.25;100637.66;5050328;28;20253;-71
2023/06/02 02:19:37;;;;;;;10.73;6.47;;;;;;;11.34;94.33;100639.34;5048110;28;20280;-70
2023/06/02 02:22:05;;;;;;;15.63;7.43;;;;;;;11.33;94.21;100637.56;5049424;28;20199;-71
2023/06/02 02:24:32;;;;;;;9.87;6.83;;;;;;;11.27;94.54;100646.31;5049911;28;20230;-71
2023/06/02 02:26:58;;;;;;;11.90;7.03;;;;;;;11.19;94.74;100632.03;5050268;28;20623;-71
2023/06/02 02:29:25;;;;;;;14.17;7.60;;;;;;;11.24;93.72;100628.63;5050014;28;20213;-72
2023/06/02 02:31:51;;;;;;;12.03;7.73;;;;;;;11.28;93.45;100626.91;5050179;28;20605;-72
2023/06/02 02:34:19;;;;;;;11.93;7.53;;;;;;;11.25;93.67;100630.41;5047614;28;20221;-70
2023/06/02 02:36:48;;;;;;;12.37;7.57;;;;;;;11.33;93.23;100629.63;5050771;28;20274;-70
2023/06/02 02:39:14;;;;;;;13.33;7.60;;;;;;;11.32;93.56;100643.75;5049649;28;20207;-70
2023/06/02 02:41:41;;;;;;;13.67;8.07;;;;;;;11.30;93.30;100638.41;5049412;28;20204;-70
2023/06/02 02:44:07;;;;;;;12.67;8.03;;;;;;;11.32;92.97;100641.97;5049092;28;20274;-72
2023/06/02 02:46:36;;;;;;;14.00;8.30;;;;;;;11.29;93.19;100656.09;5049452;28;20262;-69
2023/06/02 02:49:03;;;;;;;16.77;8.73;;;;;;;11.26;93.48;100647.19;5049218;28;20203;-71
2023/06/02 02:51:29;;;;;;;11.33;7.97;;;;;;;11.27;93.39;100646.31;5046808;28;20203;-70
2023/06/02 02:53:55;;;;;;;14.23;8.27;;;;;;;11.19;93.51;100648.84;5049166;28;20311;-71
2023/06/02 02:56:22;;;;;;;13.33;7.97;;;;;;;11.03;94.97;100645.94;5050731;28;20200;-69
2023/06/02 02:58:49;;;;;;;11.97;8.00;;;;;;;10.82;96.03;100644.75;5048749;28;20962;-70
2023/06/02 03:01:16;;;;;;;16.33;8.93;;;;;;;10.84;96.18;100655.38;5047066;28;20687;-72
2023/06/02 03:03:45;;;;;;;14.33;8.17;;;;;;;10.84;96.37;100660.66;5047830;28;20234;-71
2023/06/02 03:06:18;;;;;;;13.03;7.83;;;;;;;10.89;96.16;100645.75;5049324;28;20250;-70
2023/06/02 03:08:47;;;;;;;13.03;8.13;;;;;;;10.90;96.09;100652.81;5048562;28;20208;-71
2023/06/02 03:11:14;;;;;;;16.40;7.83;;;;;;;10.92;95.52;100653.72;5049056;28;20209;-71
2023/06/02 03:13:40;;;;;;;11.53;7.27;;;;;;;10.89;95.82;100664.28;5048362;28;20260;-72
2023/06/02 03:16:06;;;;;;;11.20;7.67;;;;;;;10.89;95.67;100662.53;5047489;28;20198;-69
2023/06/02 03:18:33;;;;;;;13.17;8.07;;;;;;;10.95;95.23;100654.66;5047389;28;20229;-71
2023/06/02 03:21:02;;;;;;;12.03;7.70;;;;;;;10.95;95.23;100662.63;5044686;28;20689;-71
2023/06/02 03:23:28;;;;;;;13.27;7.57;;;;;;;10.81;95.49;100661.50;5047611;28;20191;-71
2023/06/02 03:25:55;;;;;;;12.17;7.60;;;;;;;10.75;96.29;100652.53;5048120;28;20219;-71
2023/06/02 03:28:21;;;;;;;13.03;7.53;;;;;;;10.76;96.55;100667.56;5046483;28;20202;-71
2023/06/02 03:30:47;;;;;;;15.40;8.37;;;;;;;10.95;94.49;100669.69;5049528;28;20674;-71
2023/06/02 03:33:14;;;;;;;15.40;8.10;;;;;;;10.98;94.05;100665.31;5048614;28;20211;-71
2023/06/02 03:35:40;;;;;;;11.93;7.43;;;;;;;11.08;93.69;100668.09;5048836;28;20217;-71
2023/06/02 03:38:07;;;;;;;15.60;7.53;;;;;;;11.16;93.51;100675.31;5047425;28;20195;-71
2023/06/02 03:40:34;;;;;;;10.73;7.40;;;;;;;11.25;92.92;100669.28;5048956;28;20214;-71
2023/06/02 03:43:00;;;;;;;15.50;7.37;;;;;;;11.27;93.62;100668.44;5047621;28;20195;-71
2023/06/02 03:45:27;;;;;;;11.80;7.30;;;;;;;11.23;93.85;100676.31;5040929;28;20713;-72
2023/06/02 03:47:53;;;;;;;13.03;8.10;;;;;;;11.30;92.30;100668.47;5049280;28;20199;-70
2023/06/02 03:50:20;;;;;;;11.03;7.70;;;;;;;11.30;92.10;100670.22;5050042;28;20268;-71
2023/06/02 03:52:46;;;;;;;12.37;7.70;;;;;;;11.41;92.04;100676.56;5049253;28;20190;-71
2023/06/02 03:55:12;;;;;;;13.40;7.80;;;;;;;11.45;90.79;100678.41;5043455;28;20262;-71
2023/06/02 03:57:41;;;;;;;10.07;7.40;;;;;;;11.46;90.53;100682.84;5049099;28;20559;-71
2023/06/02 04:00:10;;;;;;;14.77;7.60;;;;;;;11.55;90.39;100680.31;5049926;28;20659;-70
2023/06/02 04:02:37;;;;;;;12.03;7.67;;;;;;;11.56;89.59;100673.25;5047245;28;20195;-70
2023/06/02 04:05:04;;;;;;;12.67;7.53;;;;;;;11.56;89.69;100682.09;5048619;28;20230;-71
2023/06/02 04:07:33;;;;;;;12.47;7.13;;;;;;;11.64;88.99;100678.69;5048295;28;20790;-71
2023/06/02 04:10:02;;;;;;;13.47;7.37;;;;;;;11.68;88.48;100693.75;5043567;28;20195;-70
2023/06/02 04:12:28;;;;;;;13.33;7.43;;;;;;;11.69;88.15;100691.13;5045546;28;20221;-70
2023/06/02 04:14:54;;;;;;;10.27;7.13;;;;;;;11.73;87.94;100694.72;5046040;28;20224;-70
2023/06/02 04:17:21;;;;;;;12.23;8.00;;;;;;;11.74;87.38;100700.03;5046296;28;20206;-71
2023/06/02 04:19:47;;;;;;;12.67;6.90;;;;;;;11.74;87.89;100700.03;5047251;28;20553;-72
2023/06/02 04:22:13;;;;;;;12.40;7.47;;;;;;;11.87;87.37;100699.34;5040904;28;20212;-73
2023/06/02 04:24:41;;;;;;;14.03;7.10;;;;;;;11.91;86.79;100701.16;5044006;28;20702;-74
2023/06/02 04:27:07;;;;;;;14.57;7.70;;;;;;;11.98;86.37;100710.09;5046477;28;20217;-75
2023/06/02 04:29:34;;;;;;;12.13;7.43;;;;;;;12.09;85.73;100708.50;5045779;28;20195;-74
2023/06/02 04:32:01;;;;;;;12.27;7.80;;;;;;;12.12;85.38;100707.63;5041801;28;20227;-74
2023/06/02 04:34:28;;;;;;;11.27;7.40;;;;;;;12.20;84.69;100714.81;5043228;28;20320;-74
2023/06/02 04:36:54;;;;;;;10.60;6.83;;;;;;;12.32;83.96;100710.50;5047662;28;20197;-74
2023/06/02 04:39:22;;;;;;;12.27;7.53;;;;;;;12.42;83.72;100705.34;5040600;28;20224;-77
2023/06/02 04:41:49;;;;;;;12.87;7.03;;;;;;;12.58;82.42;100719.69;5047924;28;20198;-79
2023/06/02 04:44:18;;;;;;;10.17;7.33;;;;;;;12.72;82.00;100701.19;5046907;28;20217;-77
2023/06/02 04:46:44;;;;;;;12.23;6.90;;;;;;;12.79;80.71;100711.91;5045740;28;20219;-80
2023/06/02 04:49:11;;;;;;;14.73;7.70;;;;;;;12.84;80.14;100707.53;5046401;28;20208;-79
2023/06/02 04:51:37;;;;;;;14.10;7.03;;;;;;;12.88;79.83;100721.75;5047753;28;20210;-79
2023/06/02 04:54:04;;;;;;;11.13;7.23;;;;;;;12.94;79.35;100727.13;5041719;28;20516;-80
2023/06/02 04:56:31;;;;;;;12.30;7.20;;;;;;;12.97;79.00;100727.16;5042861;28;20607;-79
2023/06/02 04:58:58;;;;;;;13.37;7.03;;;;;;;13.01;78.55;100723.63;5032049;28;20196;-78
2023/06/02 05:01:24;;;;;;;10.40;6.47;;;;;;;13.18;78.61;100726.47;5042243;28;20264;-80
2023/06/02 05:15:13;;;;;;;10.30;6.77;;;;;;;13.49;76.15;100720.50;5021850;23;20192;-66
2023/06/02 05:17:40;;;;;;;13.23;6.63;;;;;;;13.56;75.68;100724.09;5007302;28;20567;-67
2023/06/02 05:20:06;;;;;;;11.23;6.40;;;;;;;13.66;75.30;100709.97;5007481;28;20193;-66
2023/06/02 05:22:33;;;;;;;8.97;5.90;;;;;;;13.66;75.46;100720.63;5002324;28;20685;-66
2023/06/02 05:24:59;;;;;;;13.47;7.17;;;;;;;13.57;74.87;100719.66;5008506;28;20221;-65
2023/06/02 05:27:26;;;;;;;9.80;6.20;;;;;;;13.69;74.25;100723.31;5008403;28;20235;-67
2023/06/02 05:29:52;;;;;;;11.43;6.27;;;;;;;13.88;73.67;100718.06;5010625;28;20279;-63
2023/06/02 05:32:22;;;;;;;11.47;6.23;;;;;;;14.04;72.92;100711.94;5009286;28;20220;-68
2023/06/02 05:34:49;;;;;;;9.77;6.37;;;;;;;14.19;72.35;100708.44;5009187;28;20269;-68
2023/06/02 05:37:15;;;;;;;9.47;6.20;;;;;;;14.44;71.70;100720.13;5010750;28;20575;-67
2023/06/02 05:39:41;;;;;;;11.53;6.43;;;;;;;14.59;70.87;100712.16;5001703;28;20860;-69
2023/06/02 05:42:08;;;;;;;11.80;6.37;;;;;;;14.86;69.37;100716.66;5001488;28;20297;-68
2023/06/02 05:44:35;;;;;;;9.40;6.23;;;;;;;15.09;68.80;100709.53;5007715;28;21556;-68
2023/06/02 05:47:01;;;;;;;10.83;6.27;;;;;;;15.60;66.95;100705.06;5006396;28;20218;-69
2023/06/02 05:49:28;;;;;;;13.10;6.00;;;;;;;16.03;65.33;100710.31;5006665;28;20748;-68
2023/06/02 05:51:54;;;;;;;9.10;5.70;;;;;;;16.15;64.54;100718.28;5005337;28;20211;-70
2023/06/02 05:54:21;;;;;;;9.97;5.93;;;;;;;16.16;64.56;100722.72;4992689;28;20228;-67
2023/06/02 05:56:47;;;;;;;12.83;5.90;;;;;;;16.22;64.31;100714.69;5007875;28;20196;-69
2023/06/02 05:59:14;;;;;;;10.00;6.07;;;;;;;15.92;64.46;100711.22;5007627;28;20208;-70
2023/06/02 06:01:40;;;;;;;9.77;6.43;;;;;;;15.70;65.37;100711.31;5008471;28;20204;-69
2023/06/02 06:04:06;;;;;;;10.63;5.87;;;;;;;15.79;65.67;100716.63;5008964;28;20232;-69
2023/06/02 06:06:35;;;;;;;13.23;6.20;;;;;;;15.84;65.27;100730.84;5008786;28;20315;-69
2023/06/02 06:09:02;;;;;;;8.10;5.67;;;;;;;15.53;65.39;100725.53;5007921;28;20211;-67
2023/06/02 06:11:29;;;;;;;10.13;6.37;;;;;;;15.56;65.68;100743.31;5008627;28;20215;-68
2023/06/02 06:13:55;;;;;;;9.27;5.77;;;;;;;15.49;65.68;100720.19;5008328;28;20204;-68
2023/06/02 06:16:22;;;;;;;10.50;5.50;;;;;;;15.48;65.72;100723.75;5005981;28;20206;-67
2023/06/02 06:18:48;;;;;;;12.60;6.67;;;;;;;15.62;65.08;100730.03;5008314;28;20249;-68
2023/06/02 06:21:14;;;;;;;8.77;6.13;;;;;;;15.54;64.85;100721.97;5003901;28;20205;-66
2023/06/02 06:23:41;;;;;;;9.20;6.30;;;;;;;15.63;64.74;100724.69;5008472;28;20199;-67
2023/06/02 06:26:07;;;;;;;13.20;6.10;;;;;;;15.88;63.04;100733.50;5009224;28;20305;-67
2023/06/02 06:28:34;;;;;;;10.77;6.40;;;;;;;15.95;63.28;100734.38;5008309;28;20957;-70
2023/06/02 06:31:01;;;;;;;9.60;6.23;;;;;;;15.84;63.56;100733.53;5007590;28;20698;-68
2023/06/02 06:33:30;;;;;;;13.80;5.83;;;;;;;16.11;62.71;100732.56;5005020;28;20266;-69
2023/06/02 06:35:56;;;;;;;7.63;5.73;;;;;;;16.01;62.34;100734.38;5003805;28;20311;-70
2023/06/02 06:38:23;;;;;;;9.10;5.83;;;;;;;16.08;61.90;100740.59;5008080;28;20287;-65
2023/06/02 06:40:49;;;;;;;10.33;5.93;;;;;;;15.92;62.82;100745.06;5006763;28;20199;-70
2023/06/02 06:43:16;;;;;;;8.90;5.50;;;;;;;15.93;63.11;100747.72;5007175;28;20302;-70
2023/06/02 06:45:50;;;;;;;13.00;6.70;;;;;;;15.85;62.84;100748.66;5005586;28;20755;-68
2023/06/02 06:48:16;;;;;;;10.10;5.53;;;;;;;15.80;62.90;100755.78;5001390;28;20282;-70
2023/06/02 06:50:43;;;;;;;9.63;6.43;;;;;;;15.77;62.58;100756.69;5003033;28;20672;-66
2023/06/02 06:53:11;;;;;;;8.67;5.57;;;;;;;15.61;63.76;100755.84;5004396;28;20231;-69
2023/06/02 06:55:38;;;;;;;11.17;6.30;;;;;;;15.47;64.15;100757.56;5008106;28;20248;-69
2023/06/02 06:58:04;;;;;;;10.07;5.93;;;;;;;15.53;63.70;100760.22;5004917;28;20223;-68
2023/06/02 07:00:31;;;;;;;12.10;6.17;;;;;;;15.89;62.24;100756.66;5006613;28;20646;-69
2023/06/02 07:02:57;;;;;;;7.67;5.27;;;;;;;16.38;61.39;100747.56;5008454;28;20221;-69
2023/06/02 07:05:25;;;;;;;10.53;5.73;;;;;;;16.65;60.05;100751.91;5004441;28;20258;-68
2023/06/02 07:07:51;;;;;;;10.77;5.47;;;;;;;16.57;59.44;100750.16;4997197;28;20217;-68
2023/06/02 07:10:18;;;;;;;10.07;5.47;;;;;;;17.60;56.57;100752.97;5006799;28;20206;-68
2023/06/02 07:12:44;;;;;;;11.97;5.70;;;;;;;19.15;47.93;100744.81;5009539;28;20192;-68
2023/06/02 07:15:11;;;;;;;9.87;6.07;;;;;;;20.22;43.41;100746.47;4998571;28;20241;-68
2023/06/02 07:17:40;;;;;;;9.37;5.40;;;;;;;20.50;42.20;100748.63;5004604;28;20203;-69
2023/06/02 07:20:12;;;;;;;9.83;5.10;;;;;;;20.96;41.64;100746.69;5001647;28;20234;-68
2023/06/02 07:22:39;;;;;;;8.23;5.20;;;;;;;21.12;39.73;100757.97;5003119;28;20464;-70
2023/06/02 07:25:06;;;;;;;7.00;5.00;;;;;;;21.09;40.03;100755.34;5008776;28;20217;-69
2023/06/02 07:27:33;;;;;;;8.77;4.97;;;;;;;21.33;40.08;100753.91;5005594;28;20220;-71
2023/06/02 07:30:00;;;;;;;11.03;5.07;;;;;;;21.54;38.70;100755.16;5005240;28;20231;-67
2023/06/02 07:32:27;;;;;;;9.37;4.93;;;;;;;19.93;42.20;100749.75;5000848;28;20210;-70
2023/06/02 07:34:53;;;;;;;7.63;5.30;;;;;;;20.29;41.68;100758.00;5005472;28;20254;-69
2023/06/02 07:37:20;;;;;;;6.07;5.10;;;;;;;20.64;40.77;100751.91;5004867;28;20295;-70
2023/06/02 07:39:47;;;;;;;9.63;5.40;;;;;;;20.59;40.70;100752.00;5002554;28;20246;-70
2023/06/02 07:42:13;;;;;;;8.33;5.00;;;;;;;21.09;40.14;100751.78;5003552;28;20204;-68
2023/06/02 07:44:40;;;;;;;8.53;5.60;;;;;;;20.54;40.68;100758.41;5005929;28;20216;-71
2023/06/02 07:47:07;;;;;;;7.07;5.00;;;;;;;20.42;40.69;100745.25;5000018;28;20406;-69
2023/06/02 07:49:34;;;;;;;10.27;5.30;;;;;;;19.93;42.10;100746.16;5008275;28;20601;-69
2023/06/02 07:52:00;;;;;;;8.70;5.83;;;;;;;19.99;42.36;100740.66;5002156;28;20283;-67
2023/06/02 07:54:27;;;;;;;9.03;5.70;;;;;;;19.50;42.59;100756.78;5008793;28;20723;-67
2023/06/02 07:56:53;;;;;;;8.83;6.03;;;;;;;18.46;45.44;100748.50;5002858;28;20202;-65
2023/06/02 07:59:20;;;;;;;9.10;5.23;;;;;;;18.94;45.31;100742.47;5008878;28;21910;-67
2023/06/02 08:01:48;;;;;;;11.43;5.13;;;;;;;18.94;45.27;100756.78;5003424;28;20771;-70
2023/06/02 08:04:14;;;;;;;7.87;5.20;;;;;;;19.44;43.09;100748.81;5007574;28;20314;-69
2023/06/02 08:06:41;;;;;;;9.13;5.37;;;;;;;19.07;44.00;100746.75;4996810;28;20197;-71
2023/06/02 08:09:09;;;;;;;7.83;5.37;;;;;;;19.29;43.40;100741.94;5004192;28;20341;-70
2023/06/02 08:11:36;;;;;;;9.60;5.57;;;;;;;19.07;44.32;100752.13;5005640;28;20215;-69
2023/06/02 08:14:02;;;;;;;9.77;5.30;;;;;;;19.33;45.32;100752.59;5004064;28;20204;-69
2023/06/02 08:16:29;;;;;;;7.67;5.17;;;;;;;19.20;44.71;100751.00;5007613;28;20700;-69
2023/06/02 08:19:10;;;;;;;10.33;5.30;;;;;;;17.81;47.95;100751.94;4999625;28;20250;-68
2023/06/02 08:21:39;;;;;;;7.13;4.87;;;;;;;17.16;50.70;100750.69;5005933;28;20213;-67
2023/06/02 08:24:07;;;;;;;10.07;6.03;;;;;;;17.37;49.29;100750.53;5001966;28;20270;-68
2023/06/02 08:26:34;;;;;;;9.43;5.40;;;;;;;17.73;48.55;100735.06;5005083;28;20192;-70
2023/06/02 08:29:00;;;;;;;8.10;5.03;;;;;;;17.76;48.95;100751.97;5010530;28;20200;-70
2023/06/02 08:31:26;;;;;;;6.93;5.00;;;;;;;17.38;49.63;100740.72;5002741;28;20298;-70
2023/06/02 08:33:53;;;;;;;10.40;5.03;;;;;;;17.38;50.00;100738.91;5005506;28;20287;-70
2023/06/02 08:36:20;;;;;;;10.10;5.27;;;;;;;17.26;50.00;100728.31;5000356;28;20207;-70
2023/06/02 08:38:51;;;;;;;8.20;5.00;;;;;;;17.33;48.90;100723.81;5000205;28;20193;-70
2023/06/02 08:41:18;;;;;;;9.37;5.10;;;;;;;17.26;49.77;100720.28;5005707;28;20200;-69
2023/06/02 08:43:44;;;;;;;9.43;4.87;;;;;;;17.28;49.73;100728.31;5006921;28;20216;-70
2023/06/02 08:46:14;;;;;;;7.07;4.60;;;;;;;17.18;50.46;100719.44;5001286;28;20196;-69
2023/06/02 08:48:45;;;;;;;8.60;4.33;;;;;;;17.11;49.66;100721.28;5002983;28;20220;-67
2023/06/02 08:51:20;;;;;;;7.53;4.90;;;;;;;17.33;49.18;100721.13;5001979;28;20197;-71
2023/06/02 08:53:47;;;;;;;7.13;4.00;;;;;;;17.43;49.15;100715.66;5008044;28;20200;-69
2023/06/02 08:56:14;;;;;;;11.50;5.27;;;;;;;16.94;49.31;100723.22;5004868;28;20195;-69
2023/06/02 08:58:44;;;;;;;5.50;4.80;;;;;;;16.70;50.46;100721.59;5005194;28;20204;-71
2023/06/02 09:01:12;;;;;;;7.70;5.03;;;;;;;16.68;49.77;100718.03;4999944;28;20196;-69
2023/06/02 09:03:38;;;;;;;9.20;4.90;;;;;;;16.72;49.91;100722.47;5003766;28;20211;-68
2023/06/02 09:06:25;;;;;;;7.77;4.10;;;;;;;17.17;49.59;100721.22;5001194;28;20958;-68
2023/06/02 09:08:57;;;;;;;10.40;4.20;;;;;;;17.10;48.32;100715.94;4996437;28;20216;-66
2023/06/02 09:11:27;;;;;;;8.67;4.37;;;;;;;17.35;47.82;100709.50;5009400;28;20211;-66
2023/06/02 09:13:55;;;;;;;6.30;4.20;;;;;;;17.55;48.33;100702.16;5008866;28;20204;-70
2023/06/02 09:16:23;;;;;;;7.97;4.53;;;;;;;17.42;47.80;100704.97;5008074;28;20212;-68
2023/06/02 09:18:57;;;;;;;6.70;4.47;;;;;;;17.52;47.73;100718.25;5005488;28;20295;-66
2023/06/02 09:21:27;;;;;;;9.77;4.93;;;;;;;17.41;48.36;100716.59;5012040;28;20199;-68
2023/06/02 09:23:57;;;;;;;6.97;4.20;;;;;;;17.46;48.15;100718.31;5012610;28;20200;-69
2023/06/02 09:26:48;;;;;;;7.43;4.40;;;;;;;17.45;48.35;100716.53;5007869;28;20258;-65
2023/06/02 09:29:15;;;;;;;7.03;4.30;;;;;;;17.51;48.58;100699.50;5012291;28;20684;-68
2023/06/02 09:31:47;;;;;;;6.60;4.30;;;;;;;17.46;48.20;100709.38;5008559;28;20197;-67
2023/06/02 09:34:17;;;;;;;5.60;3.87;;;;;;;17.34;48.32;100717.53;5000791;28;20239;-68
2023/06/02 09:36:47;;;;;;;6.93;3.80;;;;;;;17.03;49.74;100703.53;5010479;28;20259;-68
2023/06/02 09:39:14;;;;;;;7.17;4.30;;;;;;;17.32;48.87;100720.22;5005859;28;20200;-70
2023/06/02 09:41:41;;;;;;;6.40;4.40;;;;;;;17.52;48.13;100709.31;5010431;28;20223;-70
2023/06/02 09:44:14;;;;;;;9.80;4.53;;;;;;;17.54;49.00;100699.47;5008573;28;20226;-69
2023/06/02 09:46:43;;;;;;;7.73;4.30;;;;;;;17.59;47.61;100705.69;5007742;28;20279;-70
2023/06/02 09:49:10;;;;;;;6.60;3.90;;;;;;;17.73;46.86;100698.44;5009368;28;20220;-68
2023/06/02 09:51:38;;;;;;;9.27;4.00;;;;;;;17.84;46.07;100709.91;5013842;28;20197;-70
2023/06/02 09:54:09;;;;;;;7.23;3.90;;;;;;;18.08;46.02;100708.75;5005940;28;20224;-68
2023/06/02 09:56:37;;;;;;;6.83;3.80;;;;;;;18.06;45.48;100701.63;5005904;28;20211;-71
2023/06/02 09:59:07;;;;;;;5.23;3.87;;;;;;;18.37;44.49;100699.44;4999302;28;20208;-70
2023/06/02 10:01:35;;;;;;;6.70;3.90;;;;;;;18.38;44.94;100702.09;5004321;28;20204;-67
2023/06/02 10:04:05;;;;;;;7.23;3.90;;;;;;;18.50;44.76;100698.38;4999125;28;20274;-68
2023/06/02 10:07:06;;;;;;;6.77;4.23;;;;;;;18.40;44.99;100702.06;5003943;28;20703;-70
2023/06/02 10:10:06;;;;;;;5.80;3.70;;;;;;;18.50;45.01;100700.16;5005127;28;20247;-70
2023/06/02 10:13:13;;;;;;;5.57;3.77;;;;;;;18.55;43.95;100704.56;4998492;28;20287;-67
2023/06/02 10:15:47;;;;;;;7.30;3.87;;;;;;;18.82;44.37;100694.38;4987237;28;20224;-69
2023/06/02 10:18:32;;;;;;;8.13;3.63;;;;;;;18.88;42.94;100689.78;5008414;28;20619;-69
2023/06/02 10:21:36;;;;;;;8.87;3.53;;;;;;;18.99;43.53;100701.22;5004704;28;20692;-69
2023/06/02 10:24:14;;;;;;;9.13;3.77;;;;;;;18.83;44.14;100701.50;5002711;28;20242;-69
2023/06/02 10:27:19;;;;;;;4.93;3.63;;;;;;;19.33;44.37;100692.63;5006441;28;20250;-69
2023/06/02 10:29:46;;;;;;;5.27;3.23;;;;;;;19.47;43.25;100692.34;5004803;28;20200;-70
2023/06/02 10:32:24;;;;;;;5.43;2.93;;;;;;;19.32;44.26;100694.41;5005238;28;20249;-68
2023/06/02 10:34:52;;;;;;;6.10;3.40;;;;;;;19.42;42.36;100698.72;5010264;28;20211;-67
2023/06/02 10:37:20;;;;;;;6.13;3.40;;;;;;;19.35;43.27;100688.09;5005227;28;20196;-67
2023/06/02 10:39:52;;;;;;;4.33;2.97;;;;;;;19.56;43.16;100687.72;5008508;28;20216;-71
2023/06/02 10:42:21;;;;;;;5.97;3.50;;;;;;;19.27;42.81;100690.94;5006235;28;20199;-68
2023/06/02 10:44:47;;;;;;;7.27;3.67;;;;;;;19.28;42.86;100694.50;5003601;28;20310;-70
2023/06/02 10:47:20;;;;;;;4.97;3.10;;;;;;;19.42;43.18;100682.59;5002507;28;20676;-71
2023/06/02 10:49:50;;;;;;;5.87;3.40;;;;;;;19.48;43.93;100678.00;5004422;28;20204;-69
2023/06/02 10:52:18;;;;;;;4.63;3.23;;;;;;;19.77;42.79;100678.38;5001842;28;20231;-69
2023/06/02 10:54:44;;;;;;;7.20;3.53;;;;;;;19.89;42.17;100688.00;5005426;28;20295;-70
2023/06/02 10:57:12;;;;;;;8.03;3.53;;;;;;;19.65;42.30;100682.22;5005254;28;20578;-67
2023/06/02 10:59:38;;;;;;;8.03;3.40;;;;;;;19.59;41.46;100682.28;5004283;28;20665;-70
2023/06/02 11:02:05;;;;;;;6.27;3.70;;;;;;;19.84;41.73;100663.03;5001480;28;20619;-66
2023/06/02 11:04:36;;;;;;;4.93;3.30;;;;;;;20.19;41.58;100678.44;5020559;23;20240;-70
2023/06/02 11:07:28;;;;;;;7.87;3.83;;;;;;;20.12;40.32;100672.31;5009457;28;20200;-69
2023/06/02 11:09:56;;;;;;;5.90;3.73;;;;;;;20.17;40.40;100677.56;5001107;28;20586;-70
2023/06/02 11:12:51;;;;;;;6.90;3.40;;;;;;;20.07;41.02;100676.00;4996250;28;20193;-66
2023/06/02 11:15:18;;;;;;;7.27;3.50;;;;;;;20.09;40.92;100675.06;4998057;28;20217;-66
2023/06/02 11:17:47;;;;;;;6.60;3.50;;;;;;;20.07;41.03;100678.69;5002418;28;20530;-65
2023/06/02 11:20:15;;;;;;;7.23;3.33;;;;;;;20.02;40.14;100674.31;5006346;28;20299;-65
2023/06/02 11:22:43;;;;;;;6.17;3.30;;;;;;;20.08;40.58;100664.34;4997091;28;20276;-66
2023/06/02 11:25:11;;;;;;;5.30;2.73;;;;;;;20.23;40.32;100677.44;4999655;28;20413;-66
2023/06/02 11:27:41;;;;;;;5.57;3.27;;;;;;;20.04;40.77;100663.50;5001268;28;20338;-66
2023/06/02 11:30:14;;;;;;;5.03;3.20;;;;;;;20.01;40.48;100663.53;5003149;28;20353;-66
2023/06/02 11:32:42;;;;;;;9.17;3.40;;;;;;;20.00;40.28;100662.66;4998756;28;20204;-65
2023/06/02 11:35:10;;;;;;;5.23;2.87;;;;;;;20.16;40.68;100656.97;5007795;28;20235;-66
2023/06/02 11:37:40;;;;;;;6.53;3.00;;;;;;;20.47;40.56;100668.88;5007471;28;20200;-66
2023/06/02 11:40:10;;;;;;;4.87;3.50;;;;;;;20.63;40.06;100669.41;4998031;28;20204;-66